createdAt,value
2017-09-16T00:00:00.400Z,2.50
2017-09-16T00:02:26.863Z,1.80
2017-09-16T00:04:53.343Z,2.40
2017-09-16T00:07:19.834Z,2.47
2017-09-16T00:09:47.075Z,2.33
2017-09-16T00:12:13.635Z,1.97
2017-09-16T00:14:40.830Z,1.87
2017-09-16T00:17:07.273Z,1.93
2017-09-16T00:19:33.738Z,1.77
2017-09-16T00:22:01.043Z,1.60
2017-09-16T00:24:27.523Z,1.33
2017-09-16T00:29:44.867Z,2.07
2017-09-16T00:32:12.023Z,2.00
2017-09-16T00:34:39.238Z,1.70
2017-09-16T00:37:05.723Z,1.83
2017-09-16T00:39:32.151Z,2.60
2017-09-16T00:41:58.579Z,2.10
2017-09-16T00:44:25.026Z,1.97
2017-09-16T00:46:51.621Z,1.80
2017-09-16T00:49:18.071Z,1.90
2017-09-16T00:51:44.508Z,1.97
2017-09-16T00:54:11.666Z,1.97
2017-09-16T00:56:38.863Z,1.90
2017-09-16T00:59:05.411Z,1.80
2017-09-16T01:01:31.838Z,1.90
2017-09-16T01:03:58.252Z,1.90
2017-09-16T01:06:24.687Z,2.00
2017-09-16T01:08:51.183Z,1.87
2017-09-16T01:11:17.655Z,1.70
2017-09-16T01:13:44.202Z,2.07
2017-09-16T01:16:10.621Z,1.93
2017-09-16T01:18:37.041Z,1.60
2017-09-16T01:21:03.502Z,2.37
2017-09-16T01:23:29.904Z,2.20
2017-09-16T01:25:56.376Z,2.30
2017-09-16T01:28:22.771Z,2.33
2017-09-16T01:30:49.195Z,2.20
2017-09-16T01:33:15.648Z,2.27
2017-09-16T01:35:42.099Z,2.10
2017-09-16T01:38:08.543Z,2.07
2017-09-16T01:40:34.999Z,2.30
2017-09-16T01:43:02.177Z,1.90
2017-09-16T01:45:28.609Z,2.10
2017-09-16T01:47:55.028Z,2.20
2017-09-16T01:50:21.485Z,2.30
2017-09-16T01:52:47.926Z,3.30
2017-09-16T01:55:14.357Z,3.20
2017-09-16T01:57:40.975Z,2.97
2017-09-16T02:00:07.431Z,3.07
2017-09-16T02:02:33.863Z,2.77
2017-09-16T02:05:00.282Z,2.43
2017-09-16T02:07:26.742Z,3.20
2017-09-16T02:09:53.154Z,4.13
2017-09-16T02:12:19.682Z,3.30
2017-09-16T02:14:46.115Z,3.63
2017-09-16T02:17:12.563Z,4.30
2017-09-16T02:19:39.002Z,3.40
2017-09-16T02:22:05.482Z,3.87
2017-09-16T02:24:32.643Z,2.13
2017-09-16T02:26:59.090Z,2.63
2017-09-16T02:29:25.758Z,2.93
2017-09-16T02:31:52.186Z,2.93
2017-09-16T02:34:18.603Z,2.90
2017-09-16T02:36:45.039Z,2.83
2017-09-16T02:39:11.483Z,3.90
2017-09-16T02:41:37.945Z,3.20
2017-09-16T02:44:04.371Z,2.97
2017-09-16T02:46:30.823Z,3.40
2017-09-16T02:48:57.971Z,2.40
2017-09-16T02:51:25.307Z,2.23
2017-09-16T02:53:52.483Z,2.07
2017-09-16T02:56:18.904Z,2.00
2017-09-16T02:58:45.346Z,2.10
2017-09-16T03:01:12.531Z,2.20
2017-09-16T03:03:38.998Z,2.80
2017-09-16T03:06:05.615Z,2.40
2017-09-16T03:08:32.036Z,3.20
2017-09-16T03:10:58.510Z,3.10
2017-09-16T03:13:24.934Z,2.50
2017-09-16T03:15:51.381Z,2.40
2017-09-16T03:18:18.557Z,2.60
2017-09-16T03:20:45.000Z,2.30
2017-09-16T03:23:11.676Z,2.10
2017-09-16T03:25:38.083Z,2.43
2017-09-16T03:28:04.514Z,2.85
2017-09-16T03:30:30.928Z,2.00
2017-09-16T03:32:57.416Z,3.00
2017-09-16T03:35:23.853Z,2.10
2017-09-16T03:37:50.274Z,2.72
2017-09-16T03:40:16.732Z,3.17
2017-09-16T03:42:43.938Z,2.30
2017-09-16T03:45:10.383Z,2.37
2017-09-16T03:47:36.806Z,2.85
2017-09-16T03:50:03.267Z,2.25
2017-09-16T03:52:29.931Z,2.17
2017-09-16T03:54:57.140Z,2.35
2017-09-16T03:57:23.596Z,1.80
2017-09-16T03:59:50.027Z,2.55
2017-09-16T04:02:28.640Z,2.67
2017-09-16T04:04:55.103Z,2.80
2017-09-16T04:07:22.328Z,2.60
2017-09-16T04:09:48.755Z,3.25
2017-09-16T04:12:15.194Z,3.42
2017-09-16T04:14:41.659Z,3.25
2017-09-16T04:17:08.074Z,3.12
2017-09-16T04:19:35.431Z,2.00
2017-09-16T04:22:02.603Z,2.47
2017-09-16T04:24:29.067Z,4.35
2017-09-16T04:26:55.508Z,3.10
2017-09-16T04:29:21.982Z,2.30
2017-09-16T04:31:49.273Z,3.12
2017-09-16T04:34:15.686Z,3.25
2017-09-16T04:36:42.130Z,3.28
2017-09-16T04:39:08.535Z,2.90
2017-09-16T04:41:35.748Z,3.30
2017-09-16T04:44:02.187Z,2.53
2017-09-16T04:46:28.683Z,2.35
2017-09-16T04:48:55.112Z,2.60
2017-09-16T04:51:21.571Z,2.05
2017-09-16T04:53:47.999Z,2.87
2017-09-16T04:56:14.435Z,3.05
2017-09-16T04:58:40.867Z,2.50
2017-09-16T05:01:07.318Z,2.65
2017-09-16T05:03:33.786Z,2.40
2017-09-16T05:06:00.362Z,2.40
2017-09-16T05:08:26.771Z,1.98
2017-09-16T05:10:53.346Z,2.65
2017-09-16T05:13:19.915Z,2.72
2017-09-16T05:15:47.096Z,2.15
2017-09-16T05:18:13.543Z,2.25
2017-09-16T05:20:39.967Z,2.10
2017-09-16T05:23:06.418Z,2.50
2017-09-16T05:25:32.830Z,2.72
2017-09-16T05:27:59.296Z,2.90
2017-09-16T05:30:25.774Z,2.25
2017-09-16T05:32:52.195Z,2.50
2017-09-16T05:35:19.415Z,2.77
2017-09-16T05:37:45.863Z,2.90
2017-09-16T05:40:12.331Z,2.90
2017-09-16T05:42:38.807Z,3.20
2017-09-16T05:45:05.265Z,2.35
2017-09-16T05:47:31.741Z,2.20
2017-09-16T05:49:58.147Z,2.70
2017-09-16T05:52:25.327Z,2.30
2017-09-16T05:54:51.829Z,2.80
2017-09-16T05:57:19.027Z,2.67
2017-09-16T05:59:45.499Z,3.10
2017-09-16T06:02:11.942Z,3.20
2017-09-16T06:04:39.135Z,2.93
2017-09-16T06:07:05.607Z,3.63
2017-09-16T06:09:32.020Z,3.93
2017-09-16T06:11:58.487Z,3.37
2017-09-16T06:14:25.665Z,3.13
2017-09-16T06:16:52.114Z,4.07
2017-09-16T06:19:18.631Z,3.33
2017-09-16T06:21:45.196Z,3.30
2017-09-16T06:24:11.631Z,3.00
2017-09-16T06:26:38.053Z,3.20
2017-09-16T06:29:04.545Z,3.20
2017-09-16T06:31:31.732Z,3.00
2017-09-16T06:33:58.194Z,2.80
2017-09-16T06:36:25.648Z,2.60
2017-09-16T06:38:52.104Z,2.47
2017-09-16T06:41:19.349Z,2.80
2017-09-16T06:43:48.973Z,2.77
2017-09-16T06:46:16.162Z,2.80
2017-09-16T06:48:42.586Z,3.27
2017-09-16T06:51:16.069Z,3.40
2017-09-16T06:53:43.315Z,3.80
2017-09-16T06:56:10.523Z,3.80
2017-09-16T06:58:36.959Z,4.70
2017-09-16T07:01:03.370Z,4.10
2017-09-16T07:03:31.354Z,3.87
2017-09-16T07:05:58.644Z,3.60
2017-09-16T07:08:25.917Z,3.80
2017-09-16T07:10:52.377Z,4.47
2017-09-16T07:13:18.946Z,3.60
2017-09-16T07:15:45.507Z,4.37
2017-09-16T07:18:12.701Z,4.53
2017-09-16T07:20:39.343Z,4.70
2017-09-16T07:23:05.791Z,3.63
2017-09-16T07:25:32.453Z,3.50
2017-09-16T07:27:58.936Z,4.40
2017-09-16T07:30:25.445Z,3.73
2017-09-16T07:32:52.611Z,3.93
2017-09-16T07:35:19.091Z,5.10
2017-09-16T07:37:45.571Z,3.87
2017-09-16T07:40:12.015Z,3.20
2017-09-16T07:42:38.499Z,3.40
2017-09-16T07:45:06.425Z,3.50
2017-09-16T07:47:32.868Z,4.10
2017-09-16T07:49:59.455Z,4.03
2017-09-16T07:52:26.655Z,4.30
2017-09-16T07:54:53.134Z,3.50
2017-09-16T07:57:20.351Z,2.67
2017-09-16T07:59:46.794Z,3.43
2017-09-16T08:02:13.258Z,3.47
2017-09-16T08:04:40.452Z,3.33
2017-09-16T08:07:06.864Z,3.40
2017-09-16T08:09:33.410Z,3.33
2017-09-16T08:11:59.839Z,3.23
2017-09-16T08:14:26.300Z,2.90
2017-09-16T08:16:52.800Z,2.40
2017-09-16T08:19:19.238Z,2.87
2017-09-16T08:21:45.904Z,2.80
2017-09-16T08:24:12.392Z,2.80
2017-09-16T08:26:38.874Z,2.00
2017-09-16T08:29:05.620Z,2.30
2017-09-16T08:31:32.076Z,2.10
2017-09-16T08:33:58.482Z,2.30
2017-09-16T08:36:24.879Z,1.97
2017-09-16T08:38:51.355Z,1.60
2017-09-16T08:41:17.907Z,1.80
2017-09-16T08:43:44.384Z,2.30
2017-09-16T08:46:10.808Z,1.80
2017-09-16T08:48:37.383Z,2.73
2017-09-16T08:51:03.815Z,2.00
2017-09-16T08:53:30.231Z,1.73
2017-09-16T08:55:56.667Z,1.90
2017-09-16T08:58:23.115Z,2.07
2017-09-16T09:00:49.611Z,2.13
2017-09-16T09:03:16.047Z,1.87
2017-09-16T09:05:42.582Z,2.27
2017-09-16T09:08:09.088Z,1.90
2017-09-16T09:13:20.589Z,1.40
2017-09-16T09:15:47.147Z,1.70
2017-09-16T09:18:14.839Z,1.60
2017-09-16T09:20:41.324Z,1.97
2017-09-16T09:23:07.778Z,1.47
2017-09-16T09:25:34.210Z,1.50
2017-09-16T09:28:00.774Z,1.77
2017-09-16T09:30:27.205Z,1.67
2017-09-16T09:32:53.731Z,2.00
2017-09-16T09:35:20.301Z,1.77
2017-09-16T09:37:47.633Z,2.13
2017-09-16T09:40:14.211Z,3.00
2017-09-16T09:42:40.866Z,2.47
2017-09-16T09:45:07.550Z,2.07
2017-09-16T09:47:33.998Z,1.83
2017-09-16T09:50:01.191Z,1.80
2017-09-16T09:52:27.713Z,1.50
2017-09-16T09:54:54.164Z,1.60
2017-09-16T09:57:20.642Z,1.70
2017-09-16T09:59:47.103Z,2.27
2017-09-16T10:02:13.544Z,1.60
2017-09-16T10:04:40.048Z,1.77
2017-09-16T10:07:07.398Z,1.50
2017-09-16T10:09:33.941Z,1.60
2017-09-16T10:12:01.235Z,1.50
2017-09-16T10:14:27.703Z,1.70
2017-09-16T10:16:54.257Z,1.20
2017-09-16T10:19:20.839Z,1.47
2017-09-16T10:21:47.308Z,1.30
2017-09-16T10:24:14.513Z,1.47
2017-09-16T10:26:40.999Z,1.20
2017-09-16T10:29:08.947Z,1.73
2017-09-16T10:31:35.454Z,1.60
2017-09-16T10:34:01.884Z,1.00
2017-09-16T10:36:28.386Z,1.33
2017-09-16T10:38:55.701Z,1.30
2017-09-16T10:41:22.220Z,2.03
2017-09-16T10:43:48.631Z,2.17
2017-09-16T10:46:15.084Z,1.27
2017-09-16T10:48:41.596Z,1.60
2017-09-16T10:51:08.036Z,1.50
2017-09-16T10:53:34.479Z,1.57
2017-09-16T10:56:00.959Z,1.87
2017-09-16T10:58:27.432Z,1.83
2017-09-16T11:00:53.935Z,2.07
2017-09-16T11:03:21.120Z,1.80
2017-09-16T11:05:47.540Z,2.33
2017-09-16T11:08:13.987Z,2.23
2017-09-16T11:10:40.431Z,2.67
2017-09-16T11:13:06.922Z,1.93
2017-09-16T11:15:34.138Z,2.30
2017-09-16T11:18:00.641Z,2.73
2017-09-16T11:20:27.107Z,2.33
2017-09-16T11:22:53.606Z,2.97
2017-09-16T11:25:20.090Z,2.90
2017-09-16T11:27:46.553Z,3.10
2017-09-16T11:30:13.753Z,3.73
2017-09-16T11:35:28.957Z,4.77
2017-09-16T11:37:55.448Z,4.50
2017-09-16T11:40:22.140Z,4.50
2017-09-16T11:42:48.789Z,4.30
2017-09-16T11:45:16.082Z,4.33
2017-09-16T11:47:43.197Z,3.63
2017-09-16T11:50:11.044Z,4.10
2017-09-16T11:52:38.342Z,4.77
2017-09-16T11:55:04.883Z,4.60
2017-09-16T11:57:31.335Z,4.10
2017-09-16T11:59:57.838Z,4.60
2017-09-16T12:02:24.307Z,4.20
2017-09-16T12:04:50.842Z,3.33
2017-09-16T12:07:17.335Z,3.60
2017-09-16T12:09:43.881Z,3.83
2017-09-16T12:12:10.427Z,3.30
2017-09-16T12:14:36.888Z,3.47
2017-09-16T12:17:03.403Z,3.40
2017-09-16T12:19:29.895Z,2.73
2017-09-16T12:21:57.169Z,3.10
2017-09-16T12:24:23.738Z,3.73
2017-09-16T12:26:50.382Z,2.73
2017-09-16T12:29:16.999Z,3.40
2017-09-16T12:31:43.454Z,3.30
2017-09-16T12:34:09.888Z,2.90
2017-09-16T12:36:36.499Z,3.30
2017-09-16T12:39:02.940Z,2.60
2017-09-16T12:41:29.431Z,3.03
2017-09-16T12:43:56.631Z,2.80
2017-09-16T12:46:23.121Z,2.57
2017-09-16T12:48:49.527Z,2.50
2017-09-16T12:51:16.755Z,2.67
2017-09-16T12:53:43.237Z,2.63
2017-09-16T12:56:09.726Z,2.53
2017-09-16T12:58:36.227Z,1.83
2017-09-16T13:01:02.777Z,2.33
2017-09-16T13:03:29.399Z,2.30
2017-09-16T13:05:55.881Z,2.17
2017-09-16T13:08:23.068Z,2.47
2017-09-16T13:10:49.590Z,2.20
2017-09-16T13:13:16.778Z,2.80
2017-09-16T13:15:43.210Z,3.20
2017-09-16T13:18:09.772Z,3.57
2017-09-16T13:20:36.219Z,4.33
2017-09-16T13:23:03.386Z,4.60
2017-09-16T13:25:30.585Z,4.20
2017-09-16T13:27:57.002Z,3.50
2017-09-16T13:30:23.447Z,3.57
2017-09-16T13:32:50.831Z,2.90
2017-09-16T13:35:17.334Z,4.27
2017-09-16T13:37:43.827Z,3.57
2017-09-16T13:40:10.291Z,3.47
2017-09-16T13:42:36.883Z,3.50
2017-09-16T13:45:04.083Z,3.60
2017-09-16T13:47:30.515Z,3.93
2017-09-16T13:49:56.987Z,3.37
2017-09-16T13:52:23.432Z,4.03
2017-09-16T13:54:50.619Z,4.20
2017-09-16T13:57:17.067Z,3.50
2017-09-16T13:59:44.243Z,4.07
2017-09-16T14:02:10.683Z,4.90
2017-09-16T14:04:37.130Z,2.83
2017-09-16T14:07:04.355Z,2.60
2017-09-16T14:09:30.785Z,1.73
2017-09-16T14:11:57.290Z,2.00
2017-09-16T14:14:24.770Z,1.47
2017-09-16T14:16:51.254Z,1.40
2017-09-16T14:19:18.444Z,1.20
2017-09-16T14:21:44.917Z,1.00
2017-09-16T14:24:11.355Z,1.00
2017-09-16T14:26:38.643Z,1.10
2017-09-16T14:29:05.083Z,0.80
2017-09-16T14:31:31.622Z,0.87
2017-09-16T14:33:58.066Z,1.03
2017-09-16T14:36:24.482Z,1.17
2017-09-16T14:38:50.975Z,1.63
2017-09-16T14:41:18.327Z,2.10
2017-09-16T14:43:45.667Z,1.80
2017-09-16T14:46:12.108Z,1.60
2017-09-16T14:48:39.551Z,1.93
2017-09-16T14:51:05.995Z,1.17
2017-09-16T14:53:32.452Z,1.43
2017-09-16T14:55:59.110Z,1.60
2017-09-16T14:58:25.615Z,1.50
2017-09-16T15:00:52.963Z,1.60
2017-09-16T15:03:20.182Z,1.87
2017-09-16T15:05:46.671Z,1.20
2017-09-16T15:08:13.183Z,1.50
2017-09-16T15:10:39.739Z,1.53
2017-09-16T15:13:06.174Z,1.90
2017-09-16T15:15:32.623Z,2.10
2017-09-16T15:17:59.146Z,2.53
2017-09-16T15:20:25.628Z,4.53
2017-09-16T15:22:52.832Z,2.80
2017-09-16T15:25:19.335Z,1.77
2017-09-16T15:27:46.549Z,1.77
2017-09-16T15:30:12.999Z,1.90
2017-09-16T15:32:39.747Z,1.13
2017-09-16T15:35:06.239Z,3.30
2017-09-16T15:37:32.702Z,4.30
2017-09-16T15:39:59.147Z,2.00
2017-09-16T15:42:25.631Z,5.10
2017-09-16T15:44:52.096Z,5.77
2017-09-16T15:47:18.670Z,2.60
2017-09-16T15:49:45.870Z,1.30
2017-09-16T15:52:12.355Z,1.30
2017-09-16T15:54:39.742Z,1.40
2017-09-16T15:57:06.176Z,1.17
2017-09-16T15:59:32.678Z,1.40
2017-09-16T16:01:59.911Z,1.20
2017-09-16T16:04:26.347Z,1.20
2017-09-16T16:06:53.688Z,1.50
2017-09-16T16:09:20.131Z,1.17
2017-09-16T16:11:46.580Z,1.50
2017-09-16T16:14:13.780Z,1.93
2017-09-16T16:16:40.240Z,2.70
2017-09-16T16:19:06.671Z,2.03
2017-09-16T16:21:33.139Z,2.30
2017-09-16T16:24:00.423Z,1.77
2017-09-16T16:26:26.871Z,2.23
2017-09-16T16:28:53.425Z,3.17
2017-09-16T16:31:19.917Z,3.03
2017-09-16T16:33:46.413Z,3.37
2017-09-16T16:36:13.764Z,4.53
2017-09-16T16:38:41.003Z,4.40
2017-09-16T16:41:07.717Z,7.40
2017-09-16T16:43:34.218Z,4.20
2017-09-16T16:46:00.731Z,3.50
2017-09-16T16:48:28.049Z,3.30
2017-09-16T16:50:54.504Z,2.83
2017-09-16T16:53:22.291Z,3.13
2017-09-16T16:55:48.782Z,2.83
2017-09-16T16:58:15.287Z,3.30
2017-09-16T17:00:41.748Z,3.10
2017-09-16T17:03:08.172Z,3.33
2017-09-16T17:05:34.630Z,3.70
2017-09-16T17:08:01.857Z,3.07
2017-09-16T17:10:28.315Z,2.70
2017-09-16T17:12:54.727Z,2.97
2017-09-16T17:15:21.341Z,3.50
2017-09-16T17:17:47.770Z,4.63
2017-09-16T17:20:14.231Z,4.23
2017-09-16T17:22:40.696Z,4.10
2017-09-16T17:25:07.879Z,4.00
2017-09-16T17:27:34.343Z,4.13
2017-09-16T17:30:00.820Z,4.13
2017-09-16T17:32:28.011Z,4.17
2017-09-16T17:34:54.481Z,27.93
2017-09-16T17:37:20.922Z,6.20
2017-09-16T17:39:48.110Z,7.60
2017-09-16T17:42:14.558Z,15.27
2017-09-16T17:44:41.068Z,6.40
2017-09-16T17:47:07.714Z,5.30
2017-09-16T17:49:34.251Z,7.87
2017-09-16T17:52:00.752Z,5.20
2017-09-16T17:54:27.971Z,4.87
2017-09-16T17:56:54.480Z,11.33
2017-09-16T17:59:20.973Z,12.07
2017-09-16T18:01:48.160Z,13.97
2017-09-16T18:04:14.612Z,8.63
2017-09-16T18:06:41.038Z,6.10
2017-09-16T18:09:07.496Z,8.23
2017-09-16T18:11:33.917Z,5.43
2017-09-16T18:14:00.341Z,7.47
2017-09-16T18:16:26.719Z,6.40
2017-09-16T18:18:53.258Z,7.37
2017-09-16T18:21:20.441Z,8.30
2017-09-16T18:23:46.893Z,8.17
2017-09-16T18:26:13.366Z,7.40
2017-09-16T18:28:40.536Z,7.70
2017-09-16T18:31:07.096Z,6.80
2017-09-16T18:33:33.601Z,6.77
2017-09-16T18:36:00.096Z,6.90
2017-09-16T18:38:26.591Z,6.00
2017-09-16T18:40:53.072Z,6.00
2017-09-16T18:43:20.285Z,5.50
2017-09-16T18:45:46.743Z,5.70
2017-09-16T18:48:13.196Z,5.13
2017-09-16T18:50:39.691Z,4.57
2017-09-16T18:53:06.191Z,5.20
2017-09-16T18:55:32.639Z,5.30
2017-09-16T18:57:59.166Z,6.80
2017-09-16T19:00:25.617Z,5.87
2017-09-16T19:02:52.100Z,6.57
2017-09-16T19:05:18.526Z,7.23
2017-09-16T19:07:45.026Z,5.83
2017-09-16T19:10:11.470Z,8.27
2017-09-16T19:12:37.915Z,6.97
2017-09-16T19:15:04.443Z,6.20
2017-09-16T19:17:30.913Z,6.80
2017-09-16T19:19:58.159Z,7.07
2017-09-16T19:22:25.387Z,7.90
2017-09-16T19:24:51.928Z,7.30
2017-09-16T19:27:18.411Z,6.10
2017-09-16T19:29:44.884Z,6.87
2017-09-16T19:32:11.370Z,6.17
2017-09-16T19:34:37.852Z,7.13
2017-09-16T19:37:04.287Z,7.50
2017-09-16T19:39:30.764Z,8.57
2017-09-16T19:41:57.228Z,7.10
2017-09-16T19:44:23.677Z,7.97
2017-09-16T19:46:50.157Z,7.53
2017-09-16T19:49:17.398Z,8.00
2017-09-16T19:51:44.580Z,7.63
2017-09-16T19:54:11.156Z,9.33
2017-09-16T19:56:37.600Z,9.33
2017-09-16T19:59:04.035Z,8.97
2017-09-16T20:01:31.346Z,9.23
2017-09-16T20:03:57.852Z,8.80
2017-09-16T20:06:24.323Z,8.80
2017-09-16T20:08:50.773Z,9.03
2017-09-16T20:11:18.129Z,10.10
2017-09-16T20:13:44.617Z,10.13
2017-09-16T20:16:11.183Z,9.77
2017-09-16T20:18:37.674Z,10.90
2017-09-16T20:21:04.831Z,11.47
2017-09-16T20:23:31.420Z,13.20
2017-09-16T20:25:57.862Z,11.17
2017-09-16T20:28:24.326Z,10.73
2017-09-16T20:30:50.806Z,11.07
2017-09-16T20:33:17.331Z,10.10
2017-09-16T20:35:43.799Z,10.80
2017-09-16T20:38:10.252Z,13.47
2017-09-16T20:40:37.688Z,11.60
2017-09-16T20:43:04.895Z,11.47
2017-09-16T20:45:31.443Z,9.20
2017-09-16T20:47:57.928Z,9.20
2017-09-16T20:50:25.121Z,10.57
2017-09-16T20:52:51.654Z,12.93
2017-09-16T20:55:18.107Z,15.00
2017-09-16T20:57:44.609Z,13.33
2017-09-16T21:00:11.116Z,14.90
2017-09-16T21:02:38.354Z,14.33
2017-09-16T21:05:04.865Z,13.87
2017-09-16T21:07:31.355Z,12.50
2017-09-16T21:09:57.802Z,13.60
2017-09-16T21:12:24.227Z,13.63
2017-09-16T21:14:50.675Z,13.70
2017-09-16T21:17:17.123Z,12.50
2017-09-16T21:19:43.635Z,12.13
2017-09-16T21:22:10.087Z,13.03
2017-09-16T21:24:36.583Z,12.95
2017-09-16T21:27:03.041Z,13.62
2017-09-16T21:29:29.530Z,12.40
2017-09-16T21:31:56.748Z,14.97
2017-09-16T21:34:23.229Z,15.10
2017-09-16T21:36:49.780Z,16.20
2017-09-16T21:39:16.253Z,14.30
2017-09-16T21:41:42.723Z,14.63
2017-09-16T21:44:09.976Z,15.10
2017-09-16T21:46:36.432Z,14.27
2017-09-16T21:49:02.855Z,14.17
2017-09-16T21:51:29.308Z,12.43
2017-09-16T21:53:55.797Z,15.07
2017-09-16T21:56:23.011Z,14.87
2017-09-16T21:58:49.455Z,15.23
2017-09-16T22:01:15.933Z,13.40
2017-09-16T22:03:42.413Z,12.53
2017-09-16T22:06:08.875Z,12.13
2017-09-16T22:08:36.079Z,13.95
2017-09-16T22:11:02.544Z,14.48
2017-09-16T22:13:29.167Z,14.95
2017-09-16T22:15:55.627Z,15.23
2017-09-16T22:18:22.828Z,14.82
2017-09-16T22:20:49.311Z,15.40
2017-09-16T22:23:15.795Z,15.63
2017-09-16T22:25:42.300Z,14.27
2017-09-16T22:28:09.639Z,12.80
2017-09-16T22:30:36.872Z,13.10
2017-09-16T22:33:03.314Z,14.80
2017-09-16T22:35:30.599Z,13.07
2017-09-16T22:37:57.084Z,13.77
2017-09-16T22:40:23.525Z,13.40
2017-09-16T22:42:50.028Z,13.40
2017-09-16T22:45:16.478Z,13.07
2017-09-16T22:47:42.923Z,12.55
2017-09-16T22:50:10.831Z,11.10
2017-09-16T22:52:37.331Z,11.50
2017-09-16T22:55:03.903Z,12.20
2017-09-16T22:57:30.356Z,12.30
2017-09-16T22:59:56.855Z,12.20
2017-09-16T23:02:24.326Z,11.90
2017-09-16T23:04:50.805Z,11.40
2017-09-16T23:07:17.227Z,11.43
2017-09-16T23:09:43.690Z,11.43
2017-09-16T23:12:10.115Z,11.68
2017-09-16T23:14:36.546Z,11.40
2017-09-16T23:17:03.000Z,11.50
2017-09-16T23:19:30.179Z,12.83
2017-09-16T23:21:56.659Z,12.55
2017-09-16T23:24:23.110Z,12.03
2017-09-16T23:26:50.287Z,12.13
2017-09-16T23:29:16.747Z,13.43
2017-09-16T23:31:43.180Z,13.27
2017-09-16T23:34:09.598Z,11.50
2017-09-16T23:36:36.044Z,12.65
2017-09-16T23:39:02.468Z,11.73
2017-09-16T23:41:28.914Z,13.48
2017-09-16T23:43:55.368Z,12.40
2017-09-16T23:46:21.847Z,11.20
2017-09-16T23:48:48.292Z,10.75
2017-09-16T23:51:14.807Z,9.25
2017-09-16T23:53:41.288Z,8.85
2017-09-16T23:56:07.750Z,9.20
2017-09-16T23:58:34.210Z,10.77
